createdAt,value
2023-01-05T00:01:10.048Z,0.22
2023-01-05T00:03:37.269Z,0.73
2023-01-05T00:06:06.776Z,0.75
2023-01-05T00:08:37.368Z,0.55
2023-01-05T00:11:31.342Z,0.43
2023-01-05T00:14:16.845Z,0.73
2023-01-05T00:17:02.396Z,0.60
2023-01-05T00:19:48.008Z,0.60
2023-01-05T00:22:30.951Z,0.75
2023-01-05T00:25:12.575Z,0.40
2023-01-05T00:30:12.093Z,0.10
2023-01-05T00:32:40.360Z,0.82
2023-01-05T00:35:07.269Z,1.58
2023-01-05T00:37:35.490Z,0.28
2023-01-05T00:40:02.282Z,0.10
2023-01-05T00:42:28.815Z,0.55
2023-01-05T00:44:55.366Z,0.60
2023-01-05T00:47:21.975Z,0.15
2023-01-05T00:49:48.499Z,0.32
2023-01-05T00:52:15.057Z,0.95
2023-01-05T00:54:41.564Z,0.00
2023-01-05T00:57:11.427Z,0.13
2023-01-05T00:59:38.558Z,0.45
2023-01-05T01:02:05.282Z,0.10
2023-01-05T01:04:32.444Z,0.10
2023-01-05T01:06:59.476Z,0.03
2023-01-05T01:09:26.299Z,0.15
2023-01-05T01:11:52.950Z,0.10
2023-01-05T01:14:19.627Z,0.52
2023-01-05T01:16:48.591Z,0.10
2023-01-05T01:19:20.417Z,0.10
2023-01-05T01:21:48.065Z,0.00
2023-01-05T01:24:23.367Z,0.52
2023-01-05T01:26:49.969Z,0.30
2023-01-05T01:29:19.488Z,0.43
2023-01-05T01:31:52.546Z,0.00
2023-01-05T01:34:19.118Z,0.00
2023-01-05T01:36:45.969Z,0.13
2023-01-05T01:39:13.990Z,0.00
2023-01-05T01:41:44.379Z,2.28
2023-01-05T01:44:50.174Z,0.30
2023-01-05T01:47:43.091Z,0.20
2023-01-05T01:50:20.634Z,0.30
2023-01-05T01:52:54.068Z,0.10
2023-01-05T01:55:21.523Z,0.00
2023-01-05T01:57:49.122Z,0.15
2023-01-05T02:00:17.596Z,0.10
2023-01-05T02:02:48.711Z,0.10
2023-01-05T02:05:22.599Z,0.10
2023-01-05T02:07:49.400Z,0.20
2023-01-05T02:10:21.360Z,0.10
2023-01-05T02:13:03.008Z,0.10
2023-01-05T02:15:49.925Z,0.35
2023-01-05T02:18:55.425Z,0.20
2023-01-05T02:21:44.429Z,0.10
2023-01-05T02:24:42.636Z,0.10
2023-01-05T02:27:26.414Z,0.10
2023-01-05T02:30:22.875Z,0.10
2023-01-05T02:32:56.934Z,0.75
2023-01-05T02:35:53.797Z,0.10
2023-01-05T02:38:51.204Z,0.52
2023-01-05T02:41:29.273Z,0.10
2023-01-05T02:44:02.165Z,0.10
2023-01-05T02:46:32.557Z,0.10
2023-01-05T02:49:04.158Z,0.00
2023-01-05T02:51:38.053Z,0.10
2023-01-05T02:54:15.933Z,0.30
2023-01-05T02:56:52.640Z,0.10
2023-01-05T02:59:42.314Z,0.00
2023-01-05T03:02:13.599Z,0.10
2023-01-05T03:04:51.229Z,0.65
2023-01-05T03:07:27.910Z,0.13
2023-01-05T03:09:58.147Z,0.10
2023-01-05T03:12:50.975Z,0.10
2023-01-05T03:15:33.685Z,0.13
2023-01-05T03:20:33.294Z,0.10
2023-01-05T03:23:23.543Z,0.00
2023-01-05T03:26:11.655Z,0.00
2023-01-05T03:29:07.097Z,0.10
2023-01-05T03:31:57.961Z,1.10
2023-01-05T03:35:14.957Z,0.10
2023-01-05T03:37:55.545Z,0.13
2023-01-05T03:40:30.896Z,0.10
2023-01-05T03:42:57.912Z,0.00
2023-01-05T03:45:31.724Z,0.30
2023-01-05T03:47:58.649Z,0.30
2023-01-05T03:50:28.636Z,0.28
2023-01-05T03:52:55.185Z,0.10
2023-01-05T03:55:22.739Z,1.20
2023-01-05T03:57:52.049Z,0.15
2023-01-05T04:00:18.961Z,0.00
2023-01-05T04:02:45.664Z,0.00
2023-01-05T04:05:16.253Z,0.00
2023-01-05T04:07:42.957Z,0.20
2023-01-05T04:10:10.206Z,0.10
2023-01-05T04:12:38.171Z,0.03
2023-01-05T04:15:05.819Z,0.15
2023-01-05T04:17:33.593Z,0.10
2023-01-05T04:20:00.331Z,0.15
2023-01-05T04:22:27.753Z,0.00
2023-01-05T04:24:58.428Z,0.00
2023-01-05T04:27:26.827Z,0.00
2023-01-05T04:29:53.416Z,0.30
2023-01-05T04:32:20.029Z,0.00
2023-01-05T04:34:47.277Z,0.00
2023-01-05T04:37:13.949Z,0.10
2023-01-05T04:39:40.507Z,0.00
2023-01-05T04:42:08.384Z,0.00
2023-01-05T04:44:35.075Z,0.00
2023-01-05T04:47:04.231Z,0.03
2023-01-05T04:49:32.414Z,0.00
2023-01-05T04:51:59.616Z,0.10
2023-01-05T04:54:28.502Z,0.10
2023-01-05T04:56:55.940Z,0.00
2023-01-05T04:59:23.092Z,0.00
2023-01-05T05:01:52.950Z,0.00
2023-01-05T05:04:20.321Z,3.40
2023-01-05T05:06:49.930Z,0.00
2023-01-05T05:09:18.370Z,0.10
2023-01-05T05:11:45.668Z,0.00
2023-01-05T05:14:12.239Z,0.08
2023-01-05T05:16:39.645Z,0.15
2023-01-05T05:19:09.783Z,0.20
2023-01-05T05:21:36.394Z,0.00
2023-01-05T05:24:04.337Z,0.08
2023-01-05T05:26:34.012Z,0.00
2023-01-05T05:29:01.103Z,0.10
2023-01-05T05:31:29.797Z,0.20
2023-01-05T05:33:56.452Z,0.75
2023-01-05T05:36:25.379Z,0.00
2023-01-05T05:38:54.345Z,0.17
2023-01-05T05:41:20.880Z,0.10
2023-01-05T05:43:47.513Z,2.58
2023-01-05T05:46:14.085Z,0.10
2023-01-05T05:48:40.652Z,0.00
2023-01-05T05:51:07.210Z,1.00
2023-01-05T05:53:34.098Z,0.00
2023-01-05T05:56:00.596Z,0.10
2023-01-05T05:58:27.154Z,0.10
2023-01-05T06:00:59.748Z,0.25
2023-01-05T06:03:26.544Z,0.03
2023-01-05T06:05:53.975Z,0.28
2023-01-05T06:08:21.794Z,0.10
2023-01-05T06:10:48.992Z,0.80
2023-01-05T06:13:15.695Z,0.15
2023-01-05T06:15:42.887Z,0.10
2023-01-05T06:18:09.782Z,0.00
2023-01-05T06:20:36.726Z,0.35
2023-01-05T06:23:04.107Z,0.10
2023-01-05T06:25:36.568Z,2.30
2023-01-05T06:28:03.948Z,0.10
2023-01-05T06:30:30.440Z,0.10
2023-01-05T06:32:57.037Z,0.10
2023-01-05T06:35:24.882Z,0.03
2023-01-05T06:37:51.381Z,0.30
2023-01-05T06:40:17.968Z,0.20
2023-01-05T06:42:44.552Z,0.47
2023-01-05T06:45:13.944Z,0.10
2023-01-05T06:47:40.967Z,0.32
2023-01-05T06:50:07.930Z,0.20
2023-01-05T06:52:36.777Z,0.70
2023-01-05T06:55:04.245Z,0.13
2023-01-05T06:57:30.737Z,0.25
2023-01-05T06:59:57.257Z,0.45
2023-01-05T07:02:23.779Z,0.73
2023-01-05T07:04:50.319Z,0.70
2023-01-05T07:07:16.907Z,0.82
2023-01-05T07:09:45.011Z,0.20
2023-01-05T07:12:11.529Z,0.38
2023-01-05T07:14:38.257Z,0.75
2023-01-05T07:17:05.189Z,0.32
2023-01-05T07:19:31.924Z,0.45
2023-01-05T07:21:58.574Z,0.95
2023-01-05T07:24:25.100Z,0.45
2023-01-05T07:26:51.645Z,1.55
2023-01-05T07:29:18.220Z,0.35
2023-01-05T07:31:44.779Z,2.67
2023-01-05T07:34:11.505Z,1.17
2023-01-05T07:36:38.087Z,0.10
2023-01-05T07:39:04.655Z,0.30
2023-01-05T07:41:31.818Z,0.10
2023-01-05T07:44:08.269Z,0.40
2023-01-05T07:46:37.481Z,0.22
2023-01-05T07:49:04.194Z,0.10
2023-01-05T07:51:30.724Z,0.20
2023-01-05T07:53:57.778Z,0.28
2023-01-05T07:56:24.310Z,0.10
2023-01-05T07:58:51.775Z,0.35
2023-01-05T08:01:18.583Z,0.55
2023-01-05T08:03:45.526Z,1.45
2023-01-05T08:06:17.839Z,1.10
2023-01-05T08:08:44.793Z,1.45
2023-01-05T08:11:16.484Z,0.40
2023-01-05T08:14:02.646Z,0.75
2023-01-05T08:16:34.082Z,0.40
2023-01-05T08:19:01.008Z,0.35
2023-01-05T08:21:27.568Z,0.65
2023-01-05T08:23:54.277Z,0.57
2023-01-05T08:26:23.394Z,0.70
2023-01-05T08:28:53.392Z,0.32
2023-01-05T08:31:26.238Z,0.10
2023-01-05T08:33:57.895Z,0.63
2023-01-05T08:36:24.594Z,0.90
2023-01-05T08:38:53.784Z,0.32
2023-01-05T08:41:26.155Z,1.38
2023-01-05T08:43:54.630Z,1.17
2023-01-05T08:46:29.179Z,1.75
2023-01-05T08:48:58.587Z,0.88
2023-01-05T08:51:25.345Z,0.52
2023-01-05T08:53:52.002Z,0.88
2023-01-05T08:56:19.228Z,0.57
2023-01-05T08:58:45.720Z,1.55
2023-01-05T09:01:15.345Z,0.52
2023-01-05T09:03:42.471Z,0.73
2023-01-05T09:06:14.321Z,1.15
2023-01-05T09:08:42.947Z,0.93
2023-01-05T09:11:20.785Z,1.58
2023-01-05T09:13:58.773Z,2.55
2023-01-05T09:16:57.296Z,2.47
2023-01-05T09:19:15.625Z,3.53
2023-01-05T09:21:42.250Z,2.38
2023-01-05T09:24:13.797Z,1.80
2023-01-05T09:26:41.304Z,2.78
2023-01-05T09:29:08.533Z,1.50
2023-01-05T09:31:38.042Z,2.85
2023-01-05T09:34:04.586Z,2.45
2023-01-05T09:36:32.258Z,4.07
2023-01-05T09:38:58.813Z,4.32
2023-01-05T09:41:33.751Z,3.45
2023-01-05T09:44:12.222Z,3.90
2023-01-05T09:46:46.504Z,4.07
2023-01-05T09:49:15.226Z,3.42
2023-01-05T09:51:47.056Z,2.50
2023-01-05T09:54:17.398Z,9.70
2023-01-05T09:59:37.419Z,5.15
2023-01-05T10:02:24.827Z,2.58
2023-01-05T10:04:54.984Z,6.63
2023-01-05T10:08:03.815Z,5.60
2023-01-05T10:11:07.666Z,5.00
2023-01-05T10:13:39.051Z,4.57
2023-01-05T10:16:06.117Z,3.63
2023-01-05T10:18:34.661Z,5.45
2023-01-05T10:21:10.422Z,3.88
2023-01-05T10:23:50.962Z,3.28
2023-01-05T10:27:06.312Z,5.20
2023-01-05T10:29:26.464Z,3.97
2023-01-05T10:31:58.816Z,4.40
2023-01-05T10:34:47.178Z,3.70
2023-01-05T10:37:40.863Z,3.75
2023-01-05T10:40:29.680Z,4.97
2023-01-05T10:43:14.655Z,6.55
2023-01-05T10:46:03.133Z,9.13
2023-01-05T10:48:33.723Z,7.22
2023-01-05T10:51:00.810Z,12.85
2023-01-05T10:53:29.166Z,25.95
2023-01-05T10:56:12.875Z,14.60
2023-01-05T10:58:43.592Z,8.35
2023-01-05T11:01:31.946Z,7.85
2023-01-05T11:07:07.161Z,4.90
2023-01-05T11:09:42.714Z,5.28
2023-01-05T11:12:19.443Z,5.57
2023-01-05T11:14:57.831Z,5.75
2023-01-05T11:17:27.398Z,12.63
2023-01-05T11:19:56.863Z,18.42
2023-01-05T11:22:51.247Z,8.73
2023-01-05T11:25:31.097Z,8.90
2023-01-05T11:28:13.081Z,4.70
2023-01-05T11:31:00.567Z,4.65
2023-01-05T11:33:29.267Z,4.47
2023-01-05T11:36:00.437Z,3.10
2023-01-05T11:38:30.455Z,5.60
2023-01-05T11:40:58.802Z,2.58
2023-01-05T11:43:28.576Z,4.22
2023-01-05T11:46:02.207Z,3.75
2023-01-05T11:48:33.037Z,2.22
2023-01-05T11:50:59.966Z,3.40
2023-01-05T11:53:40.168Z,4.18
2023-01-05T11:56:24.109Z,7.32
2023-01-05T11:58:54.780Z,4.72
2023-01-05T12:01:27.081Z,5.70
2023-01-05T12:04:04.394Z,6.25
2023-01-05T12:07:08.889Z,6.38
2023-01-05T12:09:39.460Z,6.32
2023-01-05T12:12:27.979Z,5.88
2023-01-05T12:15:26.121Z,5.00
2023-01-05T12:18:24.036Z,5.50
2023-01-05T12:21:14.204Z,5.30
2023-01-05T12:23:43.638Z,6.20
2023-01-05T12:26:29.305Z,5.75
2023-01-05T12:34:00.242Z,4.35
2023-01-05T12:35:41.483Z,3.88
2023-01-05T12:38:21.817Z,3.28
2023-01-05T12:41:09.796Z,5.03
2023-01-05T12:43:50.476Z,7.25
2023-01-05T12:46:36.359Z,5.65
2023-01-05T12:49:17.872Z,4.82
2023-01-05T12:52:06.531Z,3.08
2023-01-05T12:54:55.082Z,5.55
2023-01-05T12:57:40.394Z,2.17
2023-01-05T13:00:14.188Z,2.40
2023-01-05T13:02:46.714Z,3.00
2023-01-05T13:05:34.950Z,2.22
2023-01-05T13:08:16.074Z,4.82
2023-01-05T13:10:53.016Z,2.08
2023-01-05T13:13:24.645Z,1.20
2023-01-05T13:15:54.468Z,6.85
2023-01-05T13:18:24.428Z,9.30
2023-01-05T13:21:02.834Z,9.10
2023-01-05T13:23:40.368Z,3.58
2023-01-05T13:26:14.284Z,2.95
2023-01-05T13:28:40.921Z,2.17
2023-01-05T13:31:39.945Z,3.10
2023-01-05T13:34:25.213Z,2.88
2023-01-05T13:37:26.526Z,2.05
2023-01-05T13:39:59.098Z,3.85
2023-01-05T13:45:56.577Z,15.45
2023-01-05T13:49:04.695Z,9.45
2023-01-05T13:51:43.341Z,4.72
2023-01-05T13:54:17.800Z,5.47
2023-01-05T13:56:46.888Z,3.63
2023-01-05T13:59:35.667Z,2.35
2023-01-05T14:02:34.501Z,1.95
2023-01-05T14:05:01.255Z,1.65
2023-01-05T14:07:28.325Z,2.33
2023-01-05T14:09:59.295Z,2.38
2023-01-05T14:12:43.116Z,1.92
2023-01-05T14:15:12.775Z,1.75
2023-01-05T14:17:51.693Z,2.75
2023-01-05T14:20:38.228Z,1.15
2023-01-05T14:23:27.591Z,2.35
2023-01-05T14:25:57.826Z,1.45
2023-01-05T14:28:30.197Z,1.48
2023-01-05T14:31:14.331Z,2.00
2023-01-05T14:34:16.364Z,4.82
2023-01-05T14:39:30.917Z,1.88
2023-01-05T14:44:35.978Z,1.60
2023-01-05T14:47:04.612Z,1.80
2023-01-05T14:49:34.253Z,2.83
2023-01-05T14:52:02.916Z,2.35
2023-01-05T14:54:41.741Z,2.38
2023-01-05T14:57:26.752Z,1.70
2023-01-05T15:00:03.443Z,2.95
2023-01-05T15:02:34.704Z,2.83
2023-01-05T15:05:07.533Z,1.83
2023-01-05T15:07:49.379Z,1.73
2023-01-05T15:10:32.471Z,2.03
2023-01-05T15:13:13.983Z,2.20
2023-01-05T15:16:16.324Z,1.48
2023-01-05T15:19:20.390Z,2.63
2023-01-05T15:22:12.776Z,2.78
2023-01-05T15:25:07.508Z,2.45
2023-01-05T15:28:04.890Z,1.73
2023-01-05T15:31:05.399Z,1.67
2023-01-05T15:33:42.940Z,2.17
2023-01-05T15:36:21.998Z,5.00
2023-01-05T15:38:48.561Z,2.45
2023-01-05T15:41:19.828Z,2.05
2023-01-05T15:43:47.331Z,2.28
2023-01-05T15:46:19.274Z,2.67
2023-01-05T15:48:50.047Z,2.03
2023-01-05T15:51:26.244Z,4.20
2023-01-05T15:54:02.246Z,3.13
2023-01-05T15:56:36.790Z,2.50
2023-01-05T15:59:17.517Z,2.63
2023-01-05T16:01:44.140Z,3.22
2023-01-05T16:04:14.513Z,2.00
2023-01-05T16:06:45.146Z,2.58
2023-01-05T16:09:23.095Z,1.30
2023-01-05T16:11:53.685Z,1.20
2023-01-05T16:14:32.075Z,2.38
2023-01-05T16:17:05.171Z,4.43
2023-01-05T16:19:55.978Z,2.15
2023-01-05T16:22:31.844Z,1.67
2023-01-05T16:25:10.021Z,2.38
2023-01-05T16:27:40.999Z,2.90
2023-01-05T16:30:28.973Z,2.20
2023-01-05T16:32:58.725Z,1.48
2023-01-05T16:35:47.945Z,2.45
2023-01-05T16:38:25.732Z,2.58
2023-01-05T16:41:02.932Z,2.72
2023-01-05T16:43:39.974Z,1.10
2023-01-05T16:46:20.745Z,2.97
2023-01-05T16:48:51.487Z,1.40
2023-01-05T16:51:39.109Z,3.00
2023-01-05T16:54:24.407Z,1.60
2023-01-05T16:57:02.545Z,2.90
2023-01-05T16:59:32.295Z,1.27
2023-01-05T17:01:58.883Z,1.95
2023-01-05T17:04:25.451Z,2.83
2023-01-05T17:06:52.782Z,3.33
2023-01-05T17:09:21.448Z,1.17
2023-01-05T17:11:47.970Z,4.15
2023-01-05T17:14:16.013Z,0.82
2023-01-05T17:16:42.888Z,6.88
2023-01-05T17:19:13.819Z,4.78
2023-01-05T17:21:43.296Z,3.33
2023-01-05T17:24:12.771Z,3.53
2023-01-05T17:26:45.311Z,1.70
2023-01-05T17:29:33.018Z,0.93
2023-01-05T17:31:59.768Z,1.00
2023-01-05T17:34:26.317Z,1.48
2023-01-05T17:36:59.660Z,1.15
2023-01-05T17:39:26.471Z,2.63
2023-01-05T17:41:53.182Z,1.50
2023-01-05T17:44:19.820Z,2.58
2023-01-05T17:46:47.559Z,1.63
2023-01-05T17:49:16.939Z,2.55
2023-01-05T17:51:44.153Z,2.72
2023-01-05T17:54:12.043Z,1.77
2023-01-05T17:56:38.876Z,2.25
2023-01-05T17:59:05.573Z,2.45
2023-01-05T18:01:35.538Z,3.50
2023-01-05T18:04:02.447Z,1.73
2023-01-05T18:06:29.041Z,2.08
2023-01-05T18:08:55.543Z,1.90
2023-01-05T18:11:22.321Z,1.00
2023-01-05T18:13:49.280Z,1.25
2023-01-05T18:16:15.924Z,1.98
2023-01-05T18:18:43.033Z,0.60
2023-01-05T18:21:09.845Z,1.75
2023-01-05T18:23:36.674Z,2.58
2023-01-05T18:26:08.828Z,1.45
2023-01-05T18:28:36.711Z,2.00
2023-01-05T18:31:14.326Z,1.25
2023-01-05T18:33:41.569Z,1.40
2023-01-05T18:36:15.688Z,1.92
2023-01-05T18:38:43.145Z,0.88
2023-01-05T18:41:11.067Z,2.08
2023-01-05T18:43:37.635Z,1.80
2023-01-05T18:46:04.987Z,1.38
2023-01-05T18:48:32.266Z,1.33
2023-01-05T18:50:58.944Z,2.17
2023-01-05T18:53:25.640Z,1.42
2023-01-05T18:55:52.270Z,2.20
2023-01-05T18:58:18.900Z,1.13
2023-01-05T19:00:46.190Z,0.55
2023-01-05T19:03:12.971Z,0.43
2023-01-05T19:05:41.391Z,0.47
2023-01-05T19:08:09.355Z,1.98
2023-01-05T19:10:36.848Z,2.13
2023-01-05T19:13:03.782Z,1.08
2023-01-05T19:15:33.604Z,0.80
2023-01-05T19:18:00.285Z,2.63
2023-01-05T19:20:26.908Z,0.98
2023-01-05T19:22:53.501Z,2.35
2023-01-05T19:25:20.119Z,4.63
2023-01-05T19:27:46.824Z,3.17
2023-01-05T19:30:14.977Z,1.55
2023-01-05T19:32:41.521Z,2.00
2023-01-05T19:35:08.212Z,2.53
2023-01-05T19:37:35.827Z,3.10
2023-01-05T19:40:02.824Z,1.80
2023-01-05T19:42:31.322Z,2.55
2023-01-05T19:44:58.020Z,6.03
2023-01-05T19:47:24.564Z,9.02
2023-01-05T19:49:53.000Z,8.85
2023-01-05T19:52:20.018Z,19.77
2023-01-05T19:54:47.473Z,14.52
2023-01-05T19:57:14.013Z,16.27
2023-01-05T19:59:40.976Z,11.80
2023-01-05T20:02:07.993Z,11.75
2023-01-05T20:04:35.110Z,14.25
2023-01-05T20:07:04.103Z,11.02
2023-01-05T20:09:31.377Z,8.52
2023-01-05T20:12:09.194Z,14.82
2023-01-05T20:14:39.900Z,7.80
2023-01-05T20:17:08.858Z,8.10
2023-01-05T20:19:37.333Z,5.40
2023-01-05T20:22:07.331Z,9.30
2023-01-05T20:24:36.773Z,6.88
2023-01-05T20:27:06.820Z,6.93
2023-01-05T20:29:37.428Z,4.93
2023-01-05T20:32:11.320Z,3.97
2023-01-05T20:34:40.353Z,3.95
2023-01-05T20:37:09.153Z,5.25
2023-01-05T20:39:38.071Z,4.03
2023-01-05T20:42:05.563Z,3.40
2023-01-05T20:44:37.821Z,4.82
2023-01-05T20:47:06.605Z,2.60
2023-01-05T20:49:35.305Z,3.10
2023-01-05T20:52:02.644Z,3.75
2023-01-05T20:54:29.480Z,4.82
2023-01-05T20:56:56.056Z,5.97
2023-01-05T20:59:28.806Z,5.88
2023-01-05T21:01:56.670Z,3.30
2023-01-05T21:04:25.018Z,3.45
2023-01-05T21:06:54.602Z,2.55
2023-01-05T21:09:22.615Z,2.95
2023-01-05T21:11:49.771Z,2.40
2023-01-05T21:14:17.463Z,4.20
2023-01-05T21:16:47.491Z,3.63
2023-01-05T21:19:26.399Z,3.33
2023-01-05T21:21:56.201Z,5.35
2023-01-05T21:24:23.970Z,2.13
2023-01-05T21:26:50.758Z,1.42
2023-01-05T21:29:20.240Z,2.47
2023-01-05T21:31:46.935Z,0.98
2023-01-05T21:34:14.081Z,1.20
2023-01-05T21:36:45.004Z,3.45
2023-01-05T21:39:17.399Z,1.87
2023-01-05T21:42:03.041Z,1.60
2023-01-05T21:44:29.894Z,3.53
2023-01-05T21:46:56.617Z,1.88
2023-01-05T21:49:23.162Z,5.45
2023-01-05T21:52:08.247Z,3.08
2023-01-05T21:54:53.637Z,2.08
2023-01-05T21:57:20.259Z,3.25
2023-01-05T21:59:47.228Z,1.77
2023-01-05T22:02:14.773Z,1.95
2023-01-05T22:04:41.895Z,2.05
2023-01-05T22:07:08.515Z,1.60
2023-01-05T22:09:36.172Z,1.27
2023-01-05T22:12:04.013Z,1.20
2023-01-05T22:14:30.547Z,2.13
2023-01-05T22:16:57.044Z,0.55
2023-01-05T22:19:23.542Z,0.73
2023-01-05T22:21:50.250Z,1.42
2023-01-05T22:24:16.815Z,0.55
2023-01-05T22:26:43.419Z,1.40
2023-01-05T22:29:09.960Z,1.60
2023-01-05T22:31:36.625Z,0.43
2023-01-05T22:34:03.635Z,0.75
2023-01-05T22:36:31.130Z,2.13
2023-01-05T22:38:58.336Z,1.40
2023-01-05T22:41:29.820Z,0.70
2023-01-05T22:43:56.803Z,0.70
2023-01-05T22:46:26.035Z,3.05
2023-01-05T22:48:54.343Z,0.65
2023-01-05T22:51:24.035Z,1.98
2023-01-05T22:53:50.773Z,1.05
2023-01-05T22:56:19.867Z,1.42
2023-01-05T22:58:46.681Z,3.00
2023-01-05T23:01:21.136Z,1.88
2023-01-05T23:03:48.507Z,3.42
2023-01-05T23:06:15.902Z,1.50
2023-01-05T23:08:43.049Z,1.17
2023-01-05T23:11:15.395Z,1.88
2023-01-05T23:13:42.594Z,4.43
2023-01-05T23:16:10.370Z,1.58
2023-01-05T23:18:38.270Z,3.53
2023-01-05T23:21:08.165Z,2.65
2023-01-05T23:23:35.573Z,2.15
2023-01-05T23:26:02.705Z,1.73
2023-01-05T23:28:30.246Z,1.60
2023-01-05T23:30:58.677Z,2.03
2023-01-05T23:33:28.360Z,5.80
2023-01-05T23:35:55.912Z,3.42
2023-01-05T23:38:24.639Z,2.00
2023-01-05T23:40:54.574Z,3.28
2023-01-05T23:43:26.221Z,3.42
2023-01-05T23:48:25.039Z,1.67
2023-01-05T23:50:53.957Z,1.95
2023-01-05T23:53:20.688Z,2.60
2023-01-05T23:55:47.336Z,1.00
2023-01-05T23:58:16.472Z,1.50
